Terminal Aerodrome Forecast
Issued by NWS

Home | Current Version | Previous Version | Graphics & Text | Print | Product List | Glossary On
Versions: 1 2 3 4 5 6 7 8 9 10 11 12 13 14 15
000
FTUS43 KMPX 200520
TAFAXN
TAF
KAXN 200520Z 2006/2106 15018G25KT 6SM -RA BR VCTS SCT025CB BKN035
      WS020/17050KT
      TEMPO 2006/2009 2SM TSRA OVC025CB
     FM200900 22011KT P6SM OVC040
     FM201200 27013G20KT P6SM SCT050 SCT120
     FM202200 21008KT P6SM SKC=

USA.gov is the U.S. government's official web portal to all federal, state and local government web resources and services.